This is the latest recevied weather packets stored in our database for station/object KD2SIG. If no packets are shown the sender has not sent any weather packets the latest 10 day(s).
| Time | Temp. | Humidity | Pressure | Rain* | Wind** | Luminosity | Snow |
|---|---|---|---|---|---|---|---|
| 1777740204 | 5.56° C | 77% | 1014.4 hPa | 0 mm | - | 684 W/m² | - |
| 1777739900 | 5.56° C | 77% | 1014.5 hPa | 0 mm | - | 247 W/m² | - |
| 1777739596 | 6.11° C | 76% | 1014.5 hPa | 0 mm | - | 322 W/m² | - |
| 1777739294 | 6.11° C | 77% | 1014.5 hPa | 0 mm | - | 393 W/m² | - |
| 1777738991 | 5.56° C | 77% | 1014.5 hPa | 0 mm | - | 384 W/m² | - |
| 1777738688 | 5.56° C | 78% | 1014.4 hPa | 0 mm | - | 380 W/m² | - |
| 1777738383 | 5.56° C | 77% | 1014.5 hPa | 0 mm | - | 320 W/m² | - |
| 1777738082 | 5.56° C | 79% | 1014.6 hPa | 0 mm | - | 318 W/m² | - |
| 1777737780 | 5° C | 79% | 1014.3 hPa | 0 mm | - | 289 W/m² | - |
| 1777737479 | 5° C | 79% | 1014.8 hPa | 0 mm | - | 257 W/m² | - |
| 1777737176 | 5.56° C | 79% | 1014.8 hPa | 0 mm | - | 174 W/m² | - |
| 1777736871 | 5° C | 79% | 1014.8 hPa | 0 mm | - | 191 W/m² | - |
| 1777736258 | 5° C | 79% | 1014.6 hPa | 0 mm | - | 141 W/m² | - |
| 1777735955 | 5.56° C | 79% | 1014.6 hPa | 0 mm | - | 115 W/m² | - |
| 1777735652 | 5.56° C | 79% | 1014.5 hPa | 0 mm | - | 219 W/m² | - |
| 1777735349 | 6.67° C | 79% | 1014.3 hPa | 0 mm | - | 422 W/m² | - |
| 1777735047 | 5.56° C | 82% | 1014.4 hPa | 0 mm | - | 752 W/m² | - |
| 1777734744 | 5.56° C | 81% | 1014.3 hPa | 0 mm | - | 433 W/m² | - |
| 1777734442 | 5° C | 81% | 1014.5 hPa | 0 mm | - | 304 W/m² | - |
| 1777734138 | 5.56° C | 79% | 1014.4 hPa | 0 mm | - | 264 W/m² | - |
| 1777733835 | 5° C | 81% | 1014.2 hPa | 0 mm | - | 517 W/m² | - |
| 1777733531 | 5° C | 82% | 1014.4 hPa | 0 mm | - | 200 W/m² | - |
| 1777733228 | 5.56° C | 81% | 1014.3 hPa | 0 mm | - | 162 W/m² | - |
| 1777732925 | 5° C | 81% | 1014.5 hPa | 0 mm | - | 253 W/m² | - |
| 1777732621 | 5.56° C | 81% | 1014.4 hPa | 0 mm | - | 224 W/m² | - |
* Rain latest hour (hover to see other rain measurements)
** Current wind speed in m/s (hover to see current wind gust speed)